.
WxDataArchive / Data Records for 2009-11-06
2009-11-05 November 2009 2009-11-07

Data Records for Friday, 06 November 2009

Time	Temp	Chill	HIndex	Humid	Dewpt	 Wind 	HiWind	WindDir	Rain 	Barom 
-----	----	-----	------	-----	-----	------	------	-------	-----	----- 
00:00	31.2	31.2	31.2	85	27.2	0	0	---	0.00	30.339 
00:05	31.3	31.3	31.3	86	27.6	0	2	90	0.00	30.339 
00:10	31.9	31.9	31.9	88	28.8	0	2	90	0.00	30.339 
00:15	32.5	32.5	32.5	87	29.1	0	1	90	0.00	30.345 
00:20	32.8	32.8	32.8	86	29.1	0	0	---	0.00	30.345 
00:25	33.1	33.1	33.1	85	29.1	0	0	---	0.00	30.345 
00:30	33.4	33.4	33.4	84	29.1	0	0	---	0.00	30.344 
00:35	33.4	33.4	33.4	84	29.1	0	0	---	0.00	30.344 
00:40	33.5	33.5	33.5	83	28.9	0	0	---	0.00	30.344 
00:45	33.4	33.4	33.4	83	28.8	0	0	---	0.00	30.350 
00:50	33.2	33.2	33.2	82	28.3	0	0	---	0.00	30.350 
00:55	33.1	33.1	33.1	82	28.2	0	0	---	0.00	30.350 
01:00	32.8	32.8	32.8	81	27.6	0	0	---	0.00	30.353 
01:05	32.5	32.5	32.5	82	27.6	0	0	---	0.00	30.353 
01:10	32.2	32.2	32.2	82	27.3	0	0	---	0.00	30.353 
01:15	31.9	31.9	31.9	82	27.0	0	0	---	0.00	30.353 
01:20	31.8	31.8	31.8	82	26.9	0	0	---	0.00	30.353 
01:25	31.5	31.5	31.5	83	26.9	0	0	---	0.00	30.353 
01:30	31.2	31.2	31.2	83	26.6	0	0	---	0.00	30.354 
01:35	31.0	31.0	31.0	84	26.7	0	0	---	0.00	30.354 
01:40	30.7	30.7	30.7	84	26.4	0	0	---	0.00	30.354 
01:45	30.6	30.6	30.6	84	26.4	0	0	---	0.00	30.354 
01:50	30.4	30.4	30.4	85	26.4	0	0	---	0.00	30.354 
01:55	30.3	30.3	30.3	85	26.3	0	0	---	0.00	30.354 
02:00	30.1	30.1	30.1	85	26.1	0	0	---	0.00	30.356 
02:05	30.0	30.0	30.0	86	26.3	0	0	---	0.00	30.356 
02:10	30.0	30.0	30.0	86	26.3	0	0	---	0.00	30.356 
02:15	29.8	29.8	29.8	86	26.1	0	0	---	0.00	30.355 
02:20	29.8	29.8	29.8	87	26.4	0	0	---	0.00	30.355 
02:25	29.7	29.7	29.7	87	26.3	0	0	---	0.00	30.355 
02:30	29.7	29.7	29.7	87	26.3	0	0	---	0.00	30.356 
02:35	29.5	29.5	29.5	88	26.4	0	0	---	0.00	30.356 
02:40	29.4	29.4	29.4	88	26.3	0	0	---	0.00	30.356 
02:45	29.3	29.3	29.3	88	26.2	0	0	---	0.00	30.358 
02:50	29.3	29.3	29.3	88	26.2	0	0	---	0.00	30.358 
02:55	29.3	29.3	29.3	88	26.2	0	0	---	0.00	30.358 
03:00	29.1	29.1	29.1	88	26.0	0	0	---	0.00	30.366 
03:05	29.1	29.1	29.1	88	26.0	0	0	---	0.00	30.366 
03:10	29.1	29.1	29.1	88	26.0	0	0	---	0.00	30.366 
03:15	29.1	29.1	29.1	88	26.0	0	0	---	0.00	30.367 
03:20	29.1	29.1	29.1	88	26.0	0	0	---	0.00	30.367 
03:25	29.1	29.1	29.1	88	26.0	0	0	---	0.00	30.367 
03:30	29.0	29.0	29.0	88	25.9	0	0	---	0.00	30.365 
03:35	29.0	29.0	29.0	88	25.9	0	0	---	0.00	30.365 
03:40	29.0	29.0	29.0	88	25.9	0	0	---	0.00	30.365 
03:45	29.0	29.0	29.0	88	25.9	0	0	---	0.00	30.366 
03:50	29.0	29.0	29.0	88	25.9	0	0	---	0.00	30.366 
03:55	28.8	28.8	28.8	88	25.7	0	0	---	0.00	30.366 
04:00	28.8	28.8	28.8	88	25.7	0	0	---	0.00	30.359 
04:05	28.7	28.7	28.7	88	25.6	0	0	---	0.00	30.359 
04:10	28.7	28.7	28.7	88	25.6	0	0	---	0.00	30.359 
04:15	28.7	28.7	28.7	88	25.6	0	0	---	0.00	30.358 
04:20	28.8	28.8	28.8	89	26.0	0	0	---	0.00	30.358 
04:25	28.8	28.8	28.8	89	26.0	0	0	---	0.00	30.358 
04:30	29.0	29.0	29.0	89	26.2	0	0	---	0.00	30.360 
04:35	29.1	29.1	29.1	89	26.3	0	0	---	0.00	30.360 
04:40	29.1	29.1	29.1	89	26.3	0	0	---	0.00	30.360 
04:45	29.1	29.1	29.1	89	26.3	0	0	---	0.00	30.361 
04:50	29.1	29.1	29.1	88	26.0	0	0	---	0.00	30.361 
04:55	29.1	29.1	29.1	88	26.0	0	0	---	0.00	30.361 
05:00	29.1	29.1	29.1	88	26.0	0	0	---	0.00	30.369 
05:05	29.1	29.1	29.1	88	26.0	0	0	---	0.00	30.369 
05:10	29.3	29.3	29.3	88	26.2	0	0	---	0.00	30.369 
05:15	29.1	29.1	29.1	88	26.0	0	0	---	0.00	30.374 
05:20	29.1	29.1	29.1	88	26.0	0	0	---	0.00	30.374 
05:25	29.1	29.1	29.1	88	26.0	0	0	---	0.00	30.374 
05:30	29.0	29.0	29.0	88	25.9	0	0	---	0.00	30.371 
05:35	28.8	28.8	28.8	88	25.7	0	0	---	0.00	30.371 
05:40	28.8	28.8	28.8	88	25.7	0	0	---	0.00	30.371 
05:45	28.7	28.7	28.7	88	25.6	0	0	---	0.00	30.373 
05:50	28.7	28.7	28.7	88	25.6	0	0	---	0.00	30.373 
05:55	28.5	28.5	28.5	88	25.4	0	0	---	0.00	30.373 
06:00	28.5	28.5	28.5	88	25.4	0	0	---	0.00	30.374 
06:05	28.5	28.5	28.5	88	25.4	0	0	---	0.00	30.374 
06:10	28.5	28.5	28.5	88	25.4	0	0	---	0.00	30.374 
06:15	28.5	28.5	28.5	88	25.4	0	0	---	0.00	30.382 
06:20	28.5	28.5	28.5	88	25.4	0	0	---	0.00	30.382 
06:25	28.5	28.5	28.5	88	25.4	0	0	---	0.00	30.382 
06:30	28.5	28.5	28.5	88	25.4	0	0	---	0.00	30.383 
06:35	28.5	28.5	28.5	88	25.4	0	0	---	0.00	30.383 
06:40	28.4	28.4	28.4	88	25.3	0	0	---	0.00	30.383 
06:45	28.4	28.4	28.4	88	25.3	0	0	---	0.00	30.382 
06:50	28.4	28.4	28.4	88	25.3	0	1	90	0.00	30.382 
06:55	28.4	28.4	28.4	88	25.3	0	0	---	0.00	30.382 
07:00	28.5	28.5	28.5	88	25.4	0	0	---	0.00	30.381 
07:05	28.5	28.5	28.5	88	25.4	0	0	---	0.00	30.381 
07:10	28.5	28.5	28.5	88	25.4	0	0	---	0.00	30.381 
07:15	28.5	28.5	28.5	88	25.4	0	0	---	0.00	30.385 
07:20	28.4	28.4	28.4	88	25.3	0	0	---	0.00	30.385 
07:25	28.5	28.5	28.5	89	25.7	0	0	---	0.00	30.385 
07:30	28.8	28.8	28.8	89	26.0	0	1	90	0.00	30.386 
07:35	29.1	29.1	29.1	88	26.0	0	1	90	0.00	30.386 
07:40	29.5	29.5	29.5	88	26.4	0	1	90	0.00	30.386 
07:45	30.0	30.0	30.0	87	26.6	0	1	90	0.00	30.391 
07:50	30.3	30.3	30.3	85	26.3	0	1	90	0.00	30.391 
07:55	30.7	30.7	30.7	85	26.7	0	0	---	0.00	30.391 
08:00	31.2	31.2	31.2	85	27.2	0	1	90	0.00	30.396 
08:05	31.8	31.8	31.8	83	27.2	0	2	90	0.00	30.396 
08:10	32.5	32.5	32.5	81	27.3	1	2	90	0.00	30.396 
08:15	33.1	33.1	33.1	80	27.6	1	3	90	0.00	30.395 
08:20	33.7	33.7	33.7	79	27.9	1	2	90	0.00	30.395 
08:25	34.1	34.1	34.1	78	28.0	1	3	90	0.00	30.395 
08:30	34.7	34.7	34.7	76	27.9	2	5	90	0.00	30.393 
08:35	35.2	35.2	35.2	76	28.4	1	3	90	0.00	30.393 
08:40	35.5	35.5	35.5	75	28.4	1	4	112	0.00	30.393 
08:45	35.8	35.8	35.8	75	28.7	1	4	112	0.00	30.389 
08:50	36.2	36.2	36.2	74	28.7	1	3	112	0.00	30.389 
08:55	36.3	36.3	36.3	74	28.8	1	4	68	0.00	30.389 
09:00	36.8	36.8	36.8	74	29.3	1	4	112	0.00	30.381 
09:05	37.2	37.2	37.2	74	29.7	1	3	112	0.00	30.381 
09:10	37.8	37.8	37.8	73	29.9	1	5	90	0.00	30.381 
09:15	38.2	38.2	38.2	73	30.3	1	3	90	0.00	30.380 
09:20	38.8	38.8	38.8	72	30.6	2	3	90	0.00	30.380 
09:25	39.2	39.2	39.2	72	30.9	1	4	112	0.00	30.380 
09:30	39.5	39.5	39.5	70	30.5	2	5	112	0.00	30.375 
09:35	39.8	39.8	39.8	71	31.2	2	5	112	0.00	30.375 
09:40	40.2	40.2	40.2	71	31.6	1	4	135	0.00	30.375 
09:45	40.6	40.6	40.6	70	31.6	1	3	112	0.00	30.368 
09:50	41.1	41.1	41.1	69	31.7	1	5	90	0.00	30.368 
09:55	41.3	41.3	41.3	69	31.9	1	3	68	0.00	30.368 
10:00	41.8	41.8	41.8	69	32.4	1	4	90	0.00	30.364 
10:05	42.1	42.1	42.1	68	32.3	2	6	90	0.00	30.364 
10:10	42.5	42.5	42.5	68	32.7	0	3	112	0.00	30.364 
10:15	42.8	42.8	42.8	68	33.0	1	3	90	0.00	30.362 
10:20	42.9	42.9	42.9	67	32.7	1	5	90	0.00	30.362 
10:25	43.2	43.2	43.2	67	33.0	1	3	112	0.00	30.362 
10:30	43.6	43.6	43.6	67	33.4	1	6	112	0.00	30.358 
10:35	44.1	44.1	44.1	67	33.9	1	4	112	0.00	30.358 
10:40	44.5	44.5	44.5	66	33.9	1	4	68	0.00	30.358 
10:45	44.9	44.9	44.9	64	33.5	2	4	90	0.00	30.351 
10:50	45.2	45.2	45.2	65	34.1	1	3	90	0.00	30.351 
10:55	45.8	45.8	45.8	63	33.9	1	4	90	0.00	30.351 
11:00	46.2	46.2	46.2	62	33.9	1	5	90	0.00	30.343 
11:05	46.5	46.5	46.5	62	34.2	1	3	90	0.00	30.343 
11:10	46.8	46.8	46.8	61	34.1	2	5	112	0.00	30.343 
11:15	47.0	47.0	47.0	60	33.8	1	5	112	0.00	30.339 
11:20	47.3	47.3	47.3	61	34.5	1	3	90	0.00	30.339 
11:25	47.7	47.7	47.7	60	34.5	0	2	90	0.00	30.339 
11:30	48.0	48.0	48.0	58	33.9	1	3	90	0.00	30.334 
11:35	48.3	48.3	48.3	58	34.2	1	3	112	0.00	30.334 
11:40	48.5	48.5	48.5	58	34.4	1	3	90	0.00	30.334 
11:45	48.5	48.5	48.5	56	33.5	1	4	112	0.00	30.328 
11:50	48.6	48.6	48.6	56	33.6	1	3	90	0.00	30.328 
11:55	48.8	48.8	48.8	57	34.3	1	4	90	0.00	30.328 
12:00	48.9	48.9	48.9	57	34.3	1	4	90	0.00	30.326 
12:05	49.2	49.2	49.2	56	34.2	0	2	90	0.00	30.326 
12:10	49.5	49.5	49.5	57	34.9	1	3	90	0.00	30.326 
12:15	49.5	49.5	49.5	54	33.6	1	4	112	0.00	30.318 
12:20	49.6	49.6	49.6	54	33.6	1	3	90	0.00	30.318 
12:25	49.6	49.6	49.6	55	34.1	0	3	270	0.00	30.318 
12:30	49.8	49.8	49.8	55	34.3	1	5	68	0.00	30.306 
12:35	50.1	50.1	50.1	55	34.6	1	3	112	0.00	30.306 
12:40	50.2	50.2	50.2	54	34.2	1	4	68	0.00	30.306 
12:45	50.5	50.5	50.5	54	34.5	1	4	90	0.00	30.293 
12:50	50.8	50.8	50.8	55	35.2	0	3	270	0.00	30.293 
12:55	50.8	50.8	50.8	52	33.8	1	5	112	0.00	30.293 
13:00	51.0	51.0	51.0	54	34.9	1	3	90	0.00	30.286 
13:05	51.0	51.0	51.0	53	34.5	1	4	90	0.00	30.286 
13:10	51.1	51.1	51.1	53	34.6	1	6	135	0.00	30.286 
13:15	51.3	51.3	51.3	51	33.8	1	2	45	0.00	30.277 
13:20	51.3	51.3	51.3	50	33.3	2	4	90	0.00	30.277 
13:25	51.4	51.4	51.4	49	32.9	2	5	90	0.00	30.277 
13:30	51.4	51.4	51.4	50	33.4	1	4	112	0.00	30.262 
13:35	51.4	51.4	51.4	49	32.9	1	3	90	0.00	30.262 
13:40	51.7	51.7	51.7	49	33.2	1	3	68	0.00	30.262 
13:45	51.9	51.9	51.9	48	32.8	2	5	90	0.00	30.243 
13:50	51.9	51.9	51.9	48	32.8	2	5	90	0.00	30.243 
13:55	52.0	52.0	52.0	49	33.4	2	6	45	0.00	30.243 
14:00	52.8	52.8	52.8	48	33.7	1	4	22	0.00	30.236 
14:05	53.2	53.2	53.2	46	33.0	2	11	45	0.00	30.236 
14:10	52.9	52.9	52.9	46	32.7	2	9	90	0.00	30.236 
14:15	52.8	52.8	52.8	46	32.6	2	7	90	0.00	30.237 
14:20	53.1	53.1	53.1	48	33.9	1	3	112	0.00	30.237 
14:25	53.3	53.3	53.3	45	32.5	2	5	68	0.00	30.237 
14:30	53.5	53.5	53.5	46	33.2	2	11	112	0.00	30.230 
14:35	53.6	53.6	53.6	47	33.9	1	5	90	0.00	30.230 
14:40	53.9	53.9	53.9	47	34.1	1	9	292	0.00	30.230 
14:45	54.1	54.1	54.1	47	34.3	1	6	270	0.00	30.226 
14:50	54.1	54.1	54.1	47	34.3	1	4	112	0.00	30.226 
14:55	54.2	54.2	54.2	46	33.9	1	4	90	0.00	30.226 
15:00	54.4	54.4	54.4	44	32.9	1	3	270	0.00	30.211 
15:05	54.4	54.4	54.4	43	32.4	1	5	90	0.00	30.211 
15:10	54.7	54.7	54.7	43	32.6	1	6	90	0.00	30.211 
15:15	54.8	54.8	54.8	41	31.6	2	5	90	0.00	30.203 
15:20	54.7	54.7	54.7	42	32.1	1	5	202	0.00	30.203 
15:25	54.2	54.2	54.2	43	32.2	1	6	292	0.00	30.203 
15:30	53.9	53.9	53.9	43	31.9	1	4	112	0.00	30.200 
15:35	54.2	54.2	54.2	46	33.9	1	4	292	0.00	30.200 
15:40	54.5	54.5	54.5	45	33.6	1	5	248	0.00	30.200 
15:45	54.7	54.7	54.7	42	32.1	1	6	68	0.00	30.193 
15:50	54.5	54.5	54.5	42	31.9	2	6	90	0.00	30.193 
15:55	54.1	54.1	54.1	43	32.1	1	4	90	0.00	30.193 
16:00	53.8	53.8	53.8	43	31.8	1	4	90	0.00	30.191 
16:05	53.6	53.6	53.6	44	32.2	1	4	112	0.00	30.191 
16:10	53.5	53.5	53.5	43	31.6	1	4	68	0.00	30.191 
16:15	53.6	53.6	53.6	42	31.1	1	4	112	0.00	30.181 
16:20	53.6	53.6	53.6	43	31.7	1	7	90	0.00	30.181 
16:25	53.6	53.6	53.6	43	31.7	2	5	112	0.00	30.181 
16:30	53.8	53.8	53.8	43	31.8	1	6	112	0.00	30.171 
16:35	53.9	53.9	53.9	43	31.9	1	4	90	0.00	30.171 
16:40	53.9	53.9	53.9	43	31.9	1	6	22	0.00	30.171 
16:45	53.9	53.9	53.9	43	31.9	2	6	112	0.00	30.166 
16:50	53.8	53.8	53.8	42	31.3	2	6	112	0.00	30.166 
16:55	53.6	53.6	53.6	43	31.7	1	4	90	0.00	30.166 
17:00	53.5	53.5	53.5	43	31.6	2	10	68	0.00	30.160 
17:05	53.2	53.2	53.2	43	31.3	1	5	135	0.00	30.160 
17:10	53.1	53.1	53.1	44	31.8	1	3	68	0.00	30.160 
17:15	52.8	52.8	52.8	44	31.5	1	4	135	0.00	30.152 
17:20	52.5	52.5	52.5	45	31.8	1	3	90	0.00	30.152 
17:25	52.2	52.2	52.2	45	31.5	1	3	90	0.00	30.152 
17:30	51.9	51.9	51.9	46	31.8	0	2	112	0.00	30.150 
17:35	51.6	51.6	51.6	46	31.5	0	2	135	0.00	30.150 
17:40	51.3	51.3	51.3	46	31.2	1	2	68	0.00	30.150 
17:45	51.1	51.1	51.1	46	31.0	1	3	68	0.00	30.141 
17:50	51.0	51.0	51.0	47	31.5	1	3	90	0.00	30.141 
17:55	50.7	50.7	50.7	47	31.2	1	3	112	0.00	30.141 
18:00	50.5	50.5	50.5	48	31.5	0	2	112	0.00	30.137 
18:05	50.4	50.4	50.4	48	31.5	0	2	112	0.00	30.137 
18:10	50.1	50.1	50.1	48	31.2	1	2	90	0.00	30.137 
18:15	49.9	49.9	49.9	49	31.5	1	2	90	0.00	30.133 
18:20	49.6	49.6	49.6	49	31.2	1	4	90	0.00	30.133 
18:25	49.5	49.5	49.5	50	31.6	1	3	90	0.00	30.133 
18:30	49.4	49.4	49.4	50	31.5	1	2	90	0.00	30.131 
18:35	49.2	49.2	49.2	51	31.9	1	2	90	0.00	30.131 
18:40	49.1	49.1	49.1	51	31.8	1	2	135	0.00	30.131 
18:45	48.8	48.8	48.8	52	32.0	0	1	90	0.00	30.124 
18:50	48.6	48.6	48.6	52	31.8	0	2	135	0.00	30.124 
18:55	48.5	48.5	48.5	53	32.2	0	2	135	0.00	30.124 
19:00	48.3	48.3	48.3	53	32.0	0	5	135	0.00	30.129 
19:05	48.2	48.2	48.2	53	31.9	0	1	112	0.00	30.129 
19:10	48.0	48.0	48.0	54	32.2	0	2	112	0.00	30.129 
19:15	47.9	47.9	47.9	55	32.5	0	2	112	0.00	30.122 
19:20	47.7	47.7	47.7	55	32.3	0	2	112	0.00	30.122 
19:25	47.7	47.7	47.7	56	32.8	0	2	112	0.00	30.122 
19:30	47.6	47.6	47.6	56	32.7	1	4	90	0.00	30.119 
19:35	47.6	47.6	47.6	57	33.1	0	1	135	0.00	30.119 
19:40	47.6	47.6	47.6	57	33.1	1	3	112	0.00	30.119 
19:45	47.6	47.6	47.6	57	33.1	1	2	112	0.00	30.118 
19:50	47.6	47.6	47.6	57	33.1	1	3	135	0.00	30.118 
19:55	47.6	47.6	47.6	57	33.1	1	4	90	0.00	30.118 
20:00	47.7	47.7	47.7	57	33.2	1	5	135	0.00	30.111 
20:05	47.7	47.7	47.7	56	32.8	1	5	112	0.00	30.111 
20:10	47.9	47.9	47.9	56	33.0	1	5	112	0.00	30.111 
20:15	47.9	47.9	47.9	56	33.0	1	5	90	0.00	30.099 
20:20	47.9	47.9	47.9	56	33.0	1	3	68	0.00	30.099 
20:25	48.0	48.0	48.0	55	32.6	1	5	68	0.00	30.099 
20:30	48.0	48.0	48.0	55	32.6	1	3	135	0.00	30.096 
20:35	48.0	48.0	48.0	55	32.6	1	10	90	0.00	30.096 
20:40	48.0	48.0	48.0	55	32.6	1	4	112	0.00	30.096 
20:45	47.9	47.9	47.9	55	32.5	1	4	68	0.00	30.089 
20:50	47.9	47.9	47.9	55	32.5	1	3	112	0.00	30.089 
20:55	47.7	47.7	47.7	55	32.3	1	5	90	0.00	30.089 
21:00	47.7	47.7	47.7	55	32.3	2	7	90	0.00	30.085 
21:05	47.7	47.7	47.7	55	32.3	1	4	90	0.00	30.085 
21:10	47.7	47.7	47.7	54	31.9	2	5	90	0.00	30.085 
21:15	47.7	47.7	47.7	54	31.9	1	6	112	0.00	30.078 
21:20	47.7	47.7	47.7	54	31.9	1	5	90	0.00	30.078 
21:25	47.7	47.7	47.7	54	31.9	1	3	68	0.00	30.078 
21:30	47.6	47.6	47.6	55	32.2	1	5	112	0.00	30.077 
21:35	47.6	47.6	47.6	55	32.2	1	5	90	0.00	30.077 
21:40	47.6	47.6	47.6	55	32.2	1	3	135	0.00	30.077 
21:45	47.6	47.6	47.6	55	32.2	1	5	90	0.00	30.071 
21:50	47.6	47.6	47.6	54	31.8	1	5	90	0.00	30.071 
21:55	47.7	47.7	47.7	55	32.3	1	3	90	0.00	30.071 
22:00	47.7	47.7	47.7	54	31.9	1	3	90	0.00	30.072 
22:05	47.7	47.7	47.7	54	31.9	1	4	112	0.00	30.072 
22:10	47.7	47.7	47.7	54	31.9	1	5	68	0.00	30.072 
22:15	47.9	47.9	47.9	54	32.1	1	3	68	0.00	30.060 
22:20	47.9	47.9	47.9	54	32.1	1	4	90	0.00	30.060 
22:25	48.0	48.0	48.0	54	32.2	1	4	90	0.00	30.060 
22:30	48.2	48.2	48.2	54	32.3	1	4	90	0.00	30.060 
22:35	48.2	48.2	48.2	54	32.3	1	3	90	0.00	30.060 
22:40	48.2	48.2	48.2	53	31.9	1	6	270	0.00	30.060 
22:45	48.3	48.3	48.3	53	32.0	1	4	45	0.00	30.058 
22:50	48.3	48.3	48.3	54	32.4	1	3	90	0.00	30.058 
22:55	48.2	48.2	48.2	54	32.3	0	3	22	0.00	30.058 
23:00	48.2	48.2	48.2	53	31.9	1	4	0	0.00	30.060 
23:05	48.2	48.2	48.2	54	32.3	1	3	270	0.00	30.060 
23:10	48.0	48.0	48.0	54	32.2	1	4	248	0.00	30.060 
23:15	48.0	48.0	48.0	54	32.2	1	4	112	0.00	30.056 
23:20	47.9	47.9	47.9	54	32.1	1	3	90	0.00	30.056 
23:25	47.9	47.9	47.9	54	32.1	1	4	90	0.00	30.056 
23:30	47.9	47.9	47.9	54	32.1	1	3	90	0.00	30.050 
23:35	47.9	47.9	47.9	54	32.1	1	4	68	0.00	30.050 
23:40	47.9	47.9	47.9	54	32.1	1	4	90	0.00	30.050 
23:45	47.7	47.7	47.7	54	31.9	0	3	90	0.00	30.045 
23:50	47.6	47.6	47.6	55	32.2	1	3	0	0.00	30.045 
23:55	47.4	47.4	47.4	55	32.1	1	4	112	0.00	30.045 

CoCoRaHS
IN-AL-39
A2 Web Hosting
Creative Commons License
GoDaddy
search engine by freefind advanced

loaded 2018-11-13 02:05:35 • last modified 2010-11-18 10:43:29
Privacy PolicyDisclaimer
• wx.awcolley.com is powered by PmWiki v.2002016 •
• all content (unless otherwise noted) © 2018 A W Colley